sensor_id;sensor_type;location;lat;lon;timestamp;temperature;humidity
22698;DHT22;11516;51.612;7.510;2023-08-07T00:00:11;13.30;99.90
22698;DHT22;11516;51.612;7.510;2023-08-07T00:02:37;13.30;99.90
22698;DHT22;11516;51.612;7.510;2023-08-07T00:05:04;13.40;99.90
22698;DHT22;11516;51.612;7.510;2023-08-07T00:07:29;13.40;99.90
22698;DHT22;11516;51.612;7.510;2023-08-07T00:09:55;13.40;99.90
22698;DHT22;11516;51.612;7.510;2023-08-07T00:12:20;13.40;99.90
22698;DHT22;11516;51.612;7.510;2023-08-07T00:14:50;13.40;99.90
22698;DHT22;11516;51.612;7.510;2023-08-07T00:17:16;13.40;99.90
22698;DHT22;11516;51.612;7.510;2023-08-07T00:19:42;13.40;99.90
22698;DHT22;11516;51.612;7.510;2023-08-07T00:22:07;13.40;99.90
22698;DHT22;11516;51.612;7.510;2023-08-07T00:24:33;13.40;99.90
22698;DHT22;11516;51.612;7.510;2023-08-07T00:26:58;13.40;99.90
22698;DHT22;11516;51.612;7.510;2023-08-07T00:29:24;13.40;99.90
22698;DHT22;11516;51.612;7.510;2023-08-07T00:31:49;13.40;99.90
22698;DHT22;11516;51.612;7.510;2023-08-07T00:34:15;13.40;99.90
22698;DHT22;11516;51.612;7.510;2023-08-07T00:36:41;13.50;99.90
22698;DHT22;11516;51.612;7.510;2023-08-07T00:39:06;13.50;99.90
22698;DHT22;11516;51.612;7.510;2023-08-07T00:41:33;13.50;99.90
22698;DHT22;11516;51.612;7.510;2023-08-07T00:43:58;13.50;99.90
22698;DHT22;11516;51.612;7.510;2023-08-07T00:46:24;13.50;99.90
22698;DHT22;11516;51.612;7.510;2023-08-07T00:48:52;13.50;99.90
22698;DHT22;11516;51.612;7.510;2023-08-07T00:51:18;13.60;99.90
22698;DHT22;11516;51.612;7.510;2023-08-07T00:53:44;13.60;99.90
22698;DHT22;11516;51.612;7.510;2023-08-07T00:56:09;13.70;99.90
22698;DHT22;11516;51.612;7.510;2023-08-07T00:58:36;13.60;99.90
22698;DHT22;11516;51.612;7.510;2023-08-07T01:01:02;13.60;99.90
22698;DHT22;11516;51.612;7.510;2023-08-07T01:03:27;13.60;99.90
22698;DHT22;11516;51.612;7.510;2023-08-07T01:05:53;13.60;99.90
22698;DHT22;11516;51.612;7.510;2023-08-07T01:08:19;13.60;99.90
22698;DHT22;11516;51.612;7.510;2023-08-07T01:13:40;13.60;99.90
22698;DHT22;11516;51.612;7.510;2023-08-07T01:16:15;13.70;99.90
22698;DHT22;11516;51.612;7.510;2023-08-07T01:18:43;13.60;99.90
22698;DHT22;11516;51.612;7.510;2023-08-07T01:21:19;13.70;99.90
22698;DHT22;11516;51.612;7.510;2023-08-07T01:23:48;13.70;99.90
22698;DHT22;11516;51.612;7.510;2023-08-07T01:26:17;13.70;99.90
22698;DHT22;11516;51.612;7.510;2023-08-07T01:28:53;13.70;99.90
22698;DHT22;11516;51.612;7.510;2023-08-07T01:31:24;13.70;99.90
22698;DHT22;11516;51.612;7.510;2023-08-07T01:33:56;13.60;99.90
22698;DHT22;11516;51.612;7.510;2023-08-07T01:36:24;13.50;99.90
22698;DHT22;11516;51.612;7.510;2023-08-07T01:38:52;13.60;99.90
22698;DHT22;11516;51.612;7.510;2023-08-07T01:41:18;13.60;99.90
22698;DHT22;11516;51.612;7.510;2023-08-07T01:43:44;13.60;99.90
22698;DHT22;11516;51.612;7.510;2023-08-07T01:46:10;13.60;99.90
22698;DHT22;11516;51.612;7.510;2023-08-07T01:48:36;13.60;99.90
22698;DHT22;11516;51.612;7.510;2023-08-07T01:51:01;13.60;99.90
22698;DHT22;11516;51.612;7.510;2023-08-07T01:53:27;13.60;99.90
22698;DHT22;11516;51.612;7.510;2023-08-07T01:55:53;13.50;99.90
22698;DHT22;11516;51.612;7.510;2023-08-07T01:58:18;13.50;99.90
22698;DHT22;11516;51.612;7.510;2023-08-07T02:00:44;13.50;99.90
22698;DHT22;11516;51.612;7.510;2023-08-07T02:03:09;13.40;99.90
22698;DHT22;11516;51.612;7.510;2023-08-07T02:05:35;13.50;99.90
22698;DHT22;11516;51.612;7.510;2023-08-07T02:08:00;13.40;99.90
22698;DHT22;11516;51.612;7.510;2023-08-07T02:10:26;13.30;99.90
22698;DHT22;11516;51.612;7.510;2023-08-07T02:12:51;13.40;99.90
22698;DHT22;11516;51.612;7.510;2023-08-07T02:15:17;13.40;99.90
22698;DHT22;11516;51.612;7.510;2023-08-07T02:17:42;13.30;99.90
22698;DHT22;11516;51.612;7.510;2023-08-07T02:20:08;13.30;99.90
22698;DHT22;11516;51.612;7.510;2023-08-07T02:22:34;13.30;99.90
22698;DHT22;11516;51.612;7.510;2023-08-07T02:25:00;13.30;99.90
22698;DHT22;11516;51.612;7.510;2023-08-07T02:27:25;13.30;99.90
22698;DHT22;11516;51.612;7.510;2023-08-07T02:29:51;13.30;99.90
22698;DHT22;11516;51.612;7.510;2023-08-07T02:32:17;13.30;99.90
22698;DHT22;11516;51.612;7.510;2023-08-07T02:34:45;13.30;99.90
22698;DHT22;11516;51.612;7.510;2023-08-07T02:37:11;13.40;99.90
22698;DHT22;11516;51.612;7.510;2023-08-07T02:39:36;13.30;99.90
22698;DHT22;11516;51.612;7.510;2023-08-07T02:42:02;13.20;99.90
22698;DHT22;11516;51.612;7.510;2023-08-07T02:44:28;13.20;99.90
22698;DHT22;11516;51.612;7.510;2023-08-07T02:46:54;13.20;99.90
22698;DHT22;11516;51.612;7.510;2023-08-07T02:49:19;13.20;99.90
22698;DHT22;11516;51.612;7.510;2023-08-07T02:51:45;13.20;99.90
22698;DHT22;11516;51.612;7.510;2023-08-07T02:54:10;13.30;99.90
22698;DHT22;11516;51.612;7.510;2023-08-07T02:56:36;13.20;99.90
22698;DHT22;11516;51.612;7.510;2023-08-07T02:59:01;13.20;99.90
22698;DHT22;11516;51.612;7.510;2023-08-07T03:01:28;13.20;99.90
22698;DHT22;11516;51.612;7.510;2023-08-07T03:03:53;13.20;99.90
22698;DHT22;11516;51.612;7.510;2023-08-07T03:06:19;13.20;99.90
22698;DHT22;11516;51.612;7.510;2023-08-07T03:08:44;13.30;99.90
22698;DHT22;11516;51.612;7.510;2023-08-07T03:11:10;13.30;99.90
22698;DHT22;11516;51.612;7.510;2023-08-07T03:13:36;13.30;99.90
22698;DHT22;11516;51.612;7.510;2023-08-07T03:16:03;13.30;99.90
22698;DHT22;11516;51.612;7.510;2023-08-07T03:18:29;13.30;99.90
22698;DHT22;11516;51.612;7.510;2023-08-07T03:20:56;13.30;99.90
22698;DHT22;11516;51.612;7.510;2023-08-07T03:23:25;13.30;99.90
22698;DHT22;11516;51.612;7.510;2023-08-07T03:25:51;13.40;99.90
22698;DHT22;11516;51.612;7.510;2023-08-07T03:28:26;13.40;99.90
22698;DHT22;11516;51.612;7.510;2023-08-07T03:30:52;13.40;99.90
22698;DHT22;11516;51.612;7.510;2023-08-07T03:33:17;13.40;99.90
22698;DHT22;11516;51.612;7.510;2023-08-07T03:35:43;13.50;99.90
22698;DHT22;11516;51.612;7.510;2023-08-07T03:38:08;13.40;99.90
22698;DHT22;11516;51.612;7.510;2023-08-07T03:40:34;13.40;99.90
22698;DHT22;11516;51.612;7.510;2023-08-07T03:42:59;13.40;99.90
22698;DHT22;11516;51.612;7.510;2023-08-07T03:45:25;13.40;99.90
22698;DHT22;11516;51.612;7.510;2023-08-07T03:47:54;13.40;99.90
22698;DHT22;11516;51.612;7.510;2023-08-07T03:50:25;13.40;99.90
22698;DHT22;11516;51.612;7.510;2023-08-07T03:52:50;13.30;99.90
22698;DHT22;11516;51.612;7.510;2023-08-07T03:55:16;13.30;99.90
22698;DHT22;11516;51.612;7.510;2023-08-07T03:57:41;13.40;99.90
22698;DHT22;11516;51.612;7.510;2023-08-07T04:00:07;13.40;99.90
22698;DHT22;11516;51.612;7.510;2023-08-07T04:02:34;13.40;99.90
22698;DHT22;11516;51.612;7.510;2023-08-07T04:04:59;13.30;99.90
22698;DHT22;11516;51.612;7.510;2023-08-07T04:07:25;13.30;99.90
22698;DHT22;11516;51.612;7.510;2023-08-07T04:09:50;13.30;99.90
22698;DHT22;11516;51.612;7.510;2023-08-07T04:12:16;13.20;99.90
22698;DHT22;11516;51.612;7.510;2023-08-07T04:14:41;13.20;99.90
22698;DHT22;11516;51.612;7.510;2023-08-07T04:17:07;13.20;99.90
22698;DHT22;11516;51.612;7.510;2023-08-07T04:19:32;13.30;99.90
22698;DHT22;11516;51.612;7.510;2023-08-07T04:21:58;13.30;99.90
22698;DHT22;11516;51.612;7.510;2023-08-07T04:24:23;13.20;99.90
22698;DHT22;11516;51.612;7.510;2023-08-07T04:26:49;13.20;99.90
22698;DHT22;11516;51.612;7.510;2023-08-07T04:29:14;13.30;99.90
22698;DHT22;11516;51.612;7.510;2023-08-07T04:31:40;13.20;99.90
22698;DHT22;11516;51.612;7.510;2023-08-07T04:34:05;13.20;99.90
22698;DHT22;11516;51.612;7.510;2023-08-07T04:36:33;13.20;99.90
22698;DHT22;11516;51.612;7.510;2023-08-07T04:38:59;13.30;99.90
22698;DHT22;11516;51.612;7.510;2023-08-07T04:41:25;13.30;99.90
22698;DHT22;11516;51.612;7.510;2023-08-07T04:43:50;13.30;99.90
22698;DHT22;11516;51.612;7.510;2023-08-07T04:46:16;13.30;99.90
22698;DHT22;11516;51.612;7.510;2023-08-07T04:48:41;13.30;99.90
22698;DHT22;11516;51.612;7.510;2023-08-07T04:51:07;13.30;99.90
22698;DHT22;11516;51.612;7.510;2023-08-07T04:53:32;13.30;99.90
22698;DHT22;11516;51.612;7.510;2023-08-07T04:55:59;13.30;99.90
22698;DHT22;11516;51.612;7.510;2023-08-07T04:58:25;13.20;99.90
22698;DHT22;11516;51.612;7.510;2023-08-07T05:00:58;13.20;99.90
22698;DHT22;11516;51.612;7.510;2023-08-07T05:03:25;13.20;99.90
22698;DHT22;11516;51.612;7.510;2023-08-07T05:05:58;13.20;99.90
22698;DHT22;11516;51.612;7.510;2023-08-07T05:08:24;13.20;99.90
22698;DHT22;11516;51.612;7.510;2023-08-07T05:10:49;13.30;99.90
22698;DHT22;11516;51.612;7.510;2023-08-07T05:13:15;13.30;99.90
22698;DHT22;11516;51.612;7.510;2023-08-07T05:15:40;13.30;99.90
22698;DHT22;11516;51.612;7.510;2023-08-07T05:18:06;13.30;99.90
22698;DHT22;11516;51.612;7.510;2023-08-07T05:20:32;13.20;99.90
22698;DHT22;11516;51.612;7.510;2023-08-07T05:22:57;13.20;99.90
22698;DHT22;11516;51.612;7.510;2023-08-07T05:25:23;13.10;99.90
22698;DHT22;11516;51.612;7.510;2023-08-07T05:27:48;13.20;99.90
22698;DHT22;11516;51.612;7.510;2023-08-07T05:30:14;13.20;99.90
22698;DHT22;11516;51.612;7.510;2023-08-07T05:32:40;13.20;99.90
22698;DHT22;11516;51.612;7.510;2023-08-07T05:35:07;13.10;99.90
22698;DHT22;11516;51.612;7.510;2023-08-07T05:37:33;13.10;99.90
22698;DHT22;11516;51.612;7.510;2023-08-07T05:39:59;13.10;99.90
22698;DHT22;11516;51.612;7.510;2023-08-07T05:42:25;13.20;99.90
22698;DHT22;11516;51.612;7.510;2023-08-07T05:44:50;13.20;99.90
22698;DHT22;11516;51.612;7.510;2023-08-07T05:47:16;13.20;99.90
22698;DHT22;11516;51.612;7.510;2023-08-07T05:49:42;13.10;99.90
22698;DHT22;11516;51.612;7.510;2023-08-07T05:52:08;13.10;99.90
22698;DHT22;11516;51.612;7.510;2023-08-07T05:54:34;13.10;99.90
22698;DHT22;11516;51.612;7.510;2023-08-07T05:56:59;13.10;99.90
22698;DHT22;11516;51.612;7.510;2023-08-07T05:59:25;13.10;99.90
22698;DHT22;11516;51.612;7.510;2023-08-07T06:01:51;13.10;99.90
22698;DHT22;11516;51.612;7.510;2023-08-07T06:04:17;13.10;99.90
22698;DHT22;11516;51.612;7.510;2023-08-07T06:06:42;13.10;99.90
22698;DHT22;11516;51.612;7.510;2023-08-07T06:09:09;13.10;99.90
22698;DHT22;11516;51.612;7.510;2023-08-07T06:11:35;13.20;99.90
22698;DHT22;11516;51.612;7.510;2023-08-07T06:14:01;13.20;99.90
22698;DHT22;11516;51.612;7.510;2023-08-07T06:16:26;13.20;99.90
22698;DHT22;11516;51.612;7.510;2023-08-07T06:18:53;13.20;99.90
22698;DHT22;11516;51.612;7.510;2023-08-07T06:21:18;13.20;99.90
22698;DHT22;11516;51.612;7.510;2023-08-07T06:23:45;13.30;99.90
22698;DHT22;11516;51.612;7.510;2023-08-07T06:26:11;13.20;99.90
22698;DHT22;11516;51.612;7.510;2023-08-07T06:28:36;13.20;99.90
22698;DHT22;11516;51.612;7.510;2023-08-07T06:31:03;13.20;99.90
22698;DHT22;11516;51.612;7.510;2023-08-07T06:33:29;13.20;99.90
22698;DHT22;11516;51.612;7.510;2023-08-07T06:35:54;13.30;99.90
22698;DHT22;11516;51.612;7.510;2023-08-07T06:38:20;13.30;99.90
22698;DHT22;11516;51.612;7.510;2023-08-07T06:40:45;13.30;99.90
22698;DHT22;11516;51.612;7.510;2023-08-07T06:43:11;13.30;99.90
22698;DHT22;11516;51.612;7.510;2023-08-07T06:45:36;13.20;99.90
22698;DHT22;11516;51.612;7.510;2023-08-07T06:48:02;13.30;99.90
22698;DHT22;11516;51.612;7.510;2023-08-07T06:50:28;13.40;99.90
22698;DHT22;11516;51.612;7.510;2023-08-07T06:52:53;13.40;99.90
22698;DHT22;11516;51.612;7.510;2023-08-07T06:55:19;13.40;99.90
22698;DHT22;11516;51.612;7.510;2023-08-07T06:57:45;13.40;99.90
22698;DHT22;11516;51.612;7.510;2023-08-07T07:00:11;13.50;99.90
22698;DHT22;11516;51.612;7.510;2023-08-07T07:02:37;13.50;99.90
22698;DHT22;11516;51.612;7.510;2023-08-07T07:05:03;13.60;99.90
22698;DHT22;11516;51.612;7.510;2023-08-07T07:07:30;13.60;99.90
22698;DHT22;11516;51.612;7.510;2023-08-07T07:09:55;13.70;99.90
22698;DHT22;11516;51.612;7.510;2023-08-07T07:12:23;13.80;99.90
22698;DHT22;11516;51.612;7.510;2023-08-07T07:14:49;13.80;99.90
22698;DHT22;11516;51.612;7.510;2023-08-07T07:17:14;13.80;99.90
22698;DHT22;11516;51.612;7.510;2023-08-07T07:19:40;13.80;99.90
22698;DHT22;11516;51.612;7.510;2023-08-07T07:22:05;13.80;99.90
22698;DHT22;11516;51.612;7.510;2023-08-07T07:24:31;13.80;99.90
22698;DHT22;11516;51.612;7.510;2023-08-07T07:26:56;13.80;99.90
22698;DHT22;11516;51.612;7.510;2023-08-07T07:29:22;13.90;99.90
22698;DHT22;11516;51.612;7.510;2023-08-07T07:31:47;13.90;99.90
22698;DHT22;11516;51.612;7.510;2023-08-07T07:34:14;14.00;99.90
22698;DHT22;11516;51.612;7.510;2023-08-07T07:36:40;14.00;99.90
22698;DHT22;11516;51.612;7.510;2023-08-07T07:39:05;14.00;99.90
22698;DHT22;11516;51.612;7.510;2023-08-07T07:41:31;14.00;99.90
22698;DHT22;11516;51.612;7.510;2023-08-07T07:43:56;14.00;99.90
22698;DHT22;11516;51.612;7.510;2023-08-07T07:46:22;13.90;99.90
22698;DHT22;11516;51.612;7.510;2023-08-07T07:48:49;13.90;99.90
22698;DHT22;11516;51.612;7.510;2023-08-07T07:51:14;13.90;99.90
22698;DHT22;11516;51.612;7.510;2023-08-07T07:53:40;13.90;99.90
22698;DHT22;11516;51.612;7.510;2023-08-07T07:56:06;14.00;99.90
22698;DHT22;11516;51.612;7.510;2023-08-07T07:58:31;14.00;99.90
22698;DHT22;11516;51.612;7.510;2023-08-07T08:00:57;14.00;99.90
22698;DHT22;11516;51.612;7.510;2023-08-07T08:03:22;14.10;99.90
22698;DHT22;11516;51.612;7.510;2023-08-07T08:05:51;14.30;99.90
22698;DHT22;11516;51.612;7.510;2023-08-07T08:08:17;14.30;99.90
22698;DHT22;11516;51.612;7.510;2023-08-07T08:10:44;14.40;99.90
22698;DHT22;11516;51.612;7.510;2023-08-07T08:13:10;14.50;99.90
22698;DHT22;11516;51.612;7.510;2023-08-07T08:15:36;14.40;99.90
22698;DHT22;11516;51.612;7.510;2023-08-07T08:18:01;14.30;99.90
22698;DHT22;11516;51.612;7.510;2023-08-07T08:20:27;14.20;99.90
22698;DHT22;11516;51.612;7.510;2023-08-07T08:22:55;14.30;99.90
22698;DHT22;11516;51.612;7.510;2023-08-07T08:25:20;14.40;99.90
22698;DHT22;11516;51.612;7.510;2023-08-07T08:27:46;14.50;99.90
22698;DHT22;11516;51.612;7.510;2023-08-07T08:30:12;14.50;99.90
22698;DHT22;11516;51.612;7.510;2023-08-07T08:32:38;14.40;99.90
22698;DHT22;11516;51.612;7.510;2023-08-07T08:35:05;14.40;99.90
22698;DHT22;11516;51.612;7.510;2023-08-07T08:37:31;14.50;99.90
22698;DHT22;11516;51.612;7.510;2023-08-07T08:39:57;14.40;99.90
22698;DHT22;11516;51.612;7.510;2023-08-07T08:42:22;14.50;99.90
22698;DHT22;11516;51.612;7.510;2023-08-07T08:44:56;14.60;99.90
22698;DHT22;11516;51.612;7.510;2023-08-07T08:47:22;14.60;99.90
22698;DHT22;11516;51.612;7.510;2023-08-07T08:49:51;14.60;99.90
22698;DHT22;11516;51.612;7.510;2023-08-07T08:52:20;14.60;99.90
22698;DHT22;11516;51.612;7.510;2023-08-07T08:54:47;14.60;99.90
22698;DHT22;11516;51.612;7.510;2023-08-07T08:57:13;14.60;99.90
22698;DHT22;11516;51.612;7.510;2023-08-07T08:59:42;14.60;99.90
22698;DHT22;11516;51.612;7.510;2023-08-07T09:02:08;14.80;99.90
22698;DHT22;11516;51.612;7.510;2023-08-07T09:04:34;14.80;99.90
22698;DHT22;11516;51.612;7.510;2023-08-07T09:07:01;15.00;99.90
22698;DHT22;11516;51.612;7.510;2023-08-07T09:09:27;15.10;99.90
22698;DHT22;11516;51.612;7.510;2023-08-07T09:11:54;15.20;99.90
22698;DHT22;11516;51.612;7.510;2023-08-07T09:14:24;15.30;99.90
22698;DHT22;11516;51.612;7.510;2023-08-07T09:16:51;15.10;99.90
22698;DHT22;11516;51.612;7.510;2023-08-07T09:19:17;14.80;99.90
22698;DHT22;11516;51.612;7.510;2023-08-07T09:21:43;14.80;99.90
22698;DHT22;11516;51.612;7.510;2023-08-07T09:24:08;14.70;99.90
22698;DHT22;11516;51.612;7.510;2023-08-07T09:26:35;14.70;99.90
22698;DHT22;11516;51.612;7.510;2023-08-07T09:29:02;14.70;99.90
22698;DHT22;11516;51.612;7.510;2023-08-07T09:31:27;14.70;99.90
22698;DHT22;11516;51.612;7.510;2023-08-07T09:34:01;14.90;99.90
22698;DHT22;11516;51.612;7.510;2023-08-07T09:36:26;15.00;99.90
22698;DHT22;11516;51.612;7.510;2023-08-07T09:38:54;15.20;99.90
22698;DHT22;11516;51.612;7.510;2023-08-07T09:41:20;15.30;99.90
22698;DHT22;11516;51.612;7.510;2023-08-07T09:43:46;15.40;99.90
22698;DHT22;11516;51.612;7.510;2023-08-07T09:46:12;15.20;99.90
22698;DHT22;11516;51.612;7.510;2023-08-07T09:48:42;15.30;99.90
22698;DHT22;11516;51.612;7.510;2023-08-07T09:51:08;15.40;99.90
22698;DHT22;11516;51.612;7.510;2023-08-07T09:53:35;15.30;99.90
22698;DHT22;11516;51.612;7.510;2023-08-07T09:56:01;15.30;99.90
22698;DHT22;11516;51.612;7.510;2023-08-07T09:58:26;15.20;99.90
22698;DHT22;11516;51.612;7.510;2023-08-07T10:00:53;15.30;99.90
22698;DHT22;11516;51.612;7.510;2023-08-07T10:03:19;15.20;99.90
22698;DHT22;11516;51.612;7.510;2023-08-07T10:05:45;15.20;99.90
22698;DHT22;11516;51.612;7.510;2023-08-07T10:08:12;15.10;99.90
22698;DHT22;11516;51.612;7.510;2023-08-07T10:10:38;15.20;99.90
22698;DHT22;11516;51.612;7.510;2023-08-07T10:13:04;15.40;99.90
22698;DHT22;11516;51.612;7.510;2023-08-07T10:15:32;15.70;99.90
22698;DHT22;11516;51.612;7.510;2023-08-07T10:18:00;15.80;99.90
22698;DHT22;11516;51.612;7.510;2023-08-07T10:20:27;15.80;99.90
22698;DHT22;11516;51.612;7.510;2023-08-07T10:22:57;15.70;99.90
22698;DHT22;11516;51.612;7.510;2023-08-07T10:25:26;15.70;99.90
22698;DHT22;11516;51.612;7.510;2023-08-07T10:27:53;15.50;99.90
22698;DHT22;11516;51.612;7.510;2023-08-07T10:30:22;15.60;99.90
22698;DHT22;11516;51.612;7.510;2023-08-07T10:32:49;15.80;99.90
22698;DHT22;11516;51.612;7.510;2023-08-07T10:35:34;15.80;99.90
22698;DHT22;11516;51.612;7.510;2023-08-07T10:38:08;15.70;99.90
22698;DHT22;11516;51.612;7.510;2023-08-07T10:40:34;15.40;99.90
22698;DHT22;11516;51.612;7.510;2023-08-07T10:45:34;15.10;99.90
22698;DHT22;11516;51.612;7.510;2023-08-07T10:48:06;15.20;99.90
22698;DHT22;11516;51.612;7.510;2023-08-07T10:50:57;15.00;99.90
22698;DHT22;11516;51.612;7.510;2023-08-07T10:53:36;15.00;99.90
22698;DHT22;11516;51.612;7.510;2023-08-07T10:56:08;15.00;99.90
22698;DHT22;11516;51.612;7.510;2023-08-07T10:58:38;15.20;99.90
22698;DHT22;11516;51.612;7.510;2023-08-07T11:01:27;15.30;99.90
22698;DHT22;11516;51.612;7.510;2023-08-07T11:04:06;15.30;99.90
22698;DHT22;11516;51.612;7.510;2023-08-07T11:06:36;15.50;99.90
22698;DHT22;11516;51.612;7.510;2023-08-07T11:09:04;15.80;99.90
22698;DHT22;11516;51.612;7.510;2023-08-07T11:14:09;16.00;99.90
22698;DHT22;11516;51.612;7.510;2023-08-07T11:16:35;15.80;99.90
22698;DHT22;11516;51.612;7.510;2023-08-07T11:19:02;15.90;99.90
22698;DHT22;11516;51.612;7.510;2023-08-07T11:21:28;15.90;99.90
22698;DHT22;11516;51.612;7.510;2023-08-07T11:23:54;15.70;99.90
22698;DHT22;11516;51.612;7.510;2023-08-07T11:26:19;16.10;99.90
22698;DHT22;11516;51.612;7.510;2023-08-07T11:28:50;16.50;99.90
22698;DHT22;11516;51.612;7.510;2023-08-07T11:31:17;17.40;99.90
22698;DHT22;11516;51.612;7.510;2023-08-07T11:33:43;17.90;99.90
22698;DHT22;11516;51.612;7.510;2023-08-07T11:36:13;18.20;99.90
22698;DHT22;11516;51.612;7.510;2023-08-07T11:38:41;17.80;99.90
22698;DHT22;11516;51.612;7.510;2023-08-07T11:41:11;17.30;99.90
22698;DHT22;11516;51.612;7.510;2023-08-07T11:43:38;16.40;99.90
22698;DHT22;11516;51.612;7.510;2023-08-07T11:46:06;16.20;99.90
22698;DHT22;11516;51.612;7.510;2023-08-07T11:48:33;15.90;99.90
22698;DHT22;11516;51.612;7.510;2023-08-07T11:51:00;15.80;99.90
22698;DHT22;11516;51.612;7.510;2023-08-07T11:53:28;16.10;99.90
22698;DHT22;11516;51.612;7.510;2023-08-07T11:55:58;16.00;99.90
22698;DHT22;11516;51.612;7.510;2023-08-07T11:58:27;15.70;99.90
22698;DHT22;11516;51.612;7.510;2023-08-07T12:00:53;15.60;99.90
22698;DHT22;11516;51.612;7.510;2023-08-07T12:03:27;15.60;99.90
22698;DHT22;11516;51.612;7.510;2023-08-07T12:05:54;15.10;99.90
22698;DHT22;11516;51.612;7.510;2023-08-07T12:08:20;15.50;99.90
22698;DHT22;11516;51.612;7.510;2023-08-07T12:10:53;16.40;99.90
22698;DHT22;11516;51.612;7.510;2023-08-07T12:13:28;17.50;99.90
22698;DHT22;11516;51.612;7.510;2023-08-07T12:15:55;18.50;99.90
22698;DHT22;11516;51.612;7.510;2023-08-07T12:18:22;19.30;99.90
22698;DHT22;11516;51.612;7.510;2023-08-07T12:20:52;19.50;99.90
22698;DHT22;11516;51.612;7.510;2023-08-07T12:23:21;19.90;99.90
22698;DHT22;11516;51.612;7.510;2023-08-07T12:25:47;19.80;99.90
22698;DHT22;11516;51.612;7.510;2023-08-07T12:28:13;19.80;99.90
22698;DHT22;11516;51.612;7.510;2023-08-07T12:30:39;20.30;99.90
22698;DHT22;11516;51.612;7.510;2023-08-07T12:33:05;20.70;99.90
22698;DHT22;11516;51.612;7.510;2023-08-07T12:35:31;20.00;99.90
22698;DHT22;11516;51.612;7.510;2023-08-07T12:37:57;19.10;99.90
22698;DHT22;11516;51.612;7.510;2023-08-07T12:40:23;18.70;99.90
22698;DHT22;11516;51.612;7.510;2023-08-07T12:42:49;18.40;99.90
22698;DHT22;11516;51.612;7.510;2023-08-07T12:45:15;18.10;99.90
22698;DHT22;11516;51.612;7.510;2023-08-07T12:47:42;18.00;99.90
22698;DHT22;11516;51.612;7.510;2023-08-07T12:50:08;18.60;99.90
22698;DHT22;11516;51.612;7.510;2023-08-07T12:52:34;19.20;99.90
22698;DHT22;11516;51.612;7.510;2023-08-07T12:55:00;19.30;99.90
22698;DHT22;11516;51.612;7.510;2023-08-07T12:57:26;19.10;99.90
22698;DHT22;11516;51.612;7.510;2023-08-07T12:59:51;18.70;99.90
22698;DHT22;11516;51.612;7.510;2023-08-07T13:02:17;19.40;99.90
22698;DHT22;11516;51.612;7.510;2023-08-07T13:04:42;19.90;99.90
22698;DHT22;11516;51.612;7.510;2023-08-07T13:07:08;20.30;99.90
22698;DHT22;11516;51.612;7.510;2023-08-07T13:09:33;20.80;99.90
22698;DHT22;11516;51.612;7.510;2023-08-07T13:11:59;20.80;99.90
22698;DHT22;11516;51.612;7.510;2023-08-07T13:14:24;20.60;99.90
22698;DHT22;11516;51.612;7.510;2023-08-07T13:16:50;19.70;99.90
22698;DHT22;11516;51.612;7.510;2023-08-07T13:19:16;19.10;99.90
22698;DHT22;11516;51.612;7.510;2023-08-07T13:21:42;19.00;99.90
22698;DHT22;11516;51.612;7.510;2023-08-07T13:24:07;19.10;99.90
22698;DHT22;11516;51.612;7.510;2023-08-07T13:26:33;19.20;99.90
22698;DHT22;11516;51.612;7.510;2023-08-07T13:28:58;19.00;99.90
22698;DHT22;11516;51.612;7.510;2023-08-07T13:31:24;18.60;99.90
22698;DHT22;11516;51.612;7.510;2023-08-07T13:33:49;18.60;99.90
22698;DHT22;11516;51.612;7.510;2023-08-07T13:36:15;18.90;99.90
22698;DHT22;11516;51.612;7.510;2023-08-07T13:38:41;19.30;99.90
22698;DHT22;11516;51.612;7.510;2023-08-07T13:41:06;19.90;99.90
22698;DHT22;11516;51.612;7.510;2023-08-07T13:43:33;20.30;99.90
